createdAt,value
2023-02-13T00:01:05.603Z,81.10
2023-02-13T00:03:32.812Z,81.12
2023-02-13T00:06:00.148Z,81.37
2023-02-13T00:08:27.419Z,81.22
2023-02-13T00:10:57.159Z,81.26
2023-02-13T00:13:29.450Z,81.22
2023-02-13T00:16:00.970Z,81.39
2023-02-13T00:18:29.388Z,81.40
2023-02-13T00:21:01.898Z,81.37
2023-02-13T00:23:33.384Z,81.13
2023-02-13T00:26:06.436Z,81.50
2023-02-13T00:28:33.957Z,81.85
2023-02-13T00:31:11.106Z,81.77
2023-02-13T00:33:38.966Z,81.67
2023-02-13T00:36:11.583Z,81.83
2023-02-13T00:38:42.083Z,81.99
2023-02-13T00:41:10.123Z,81.80
2023-02-13T00:43:40.226Z,81.95
2023-02-13T00:46:07.585Z,81.45
2023-02-13T00:48:35.350Z,81.37
2023-02-13T00:51:06.033Z,81.71
2023-02-13T00:53:34.154Z,81.35
2023-02-13T00:56:01.735Z,81.38
2023-02-13T00:58:28.995Z,81.39
2023-02-13T01:00:57.904Z,81.51
2023-02-13T01:03:26.089Z,81.39
2023-02-13T01:05:53.364Z,80.95
2023-02-13T01:08:20.967Z,81.25
2023-02-13T01:10:48.810Z,81.54
2023-02-13T01:13:18.453Z,81.65
2023-02-13T01:15:47.042Z,80.87
2023-02-13T01:18:20.187Z,81.34
2023-02-13T01:21:02.937Z,80.90
2023-02-13T01:23:34.209Z,80.57
2023-02-13T01:26:04.640Z,80.59
2023-02-13T01:28:31.966Z,80.74
2023-02-13T01:30:59.804Z,80.23
2023-02-13T01:33:29.969Z,80.13
2023-02-13T01:36:00.314Z,80.05
2023-02-13T01:38:30.650Z,79.93
2023-02-13T01:40:58.029Z,79.85
2023-02-13T01:43:44.552Z,79.96
2023-02-13T01:46:14.258Z,81.66
2023-02-13T01:48:41.740Z,82.08
2023-02-13T01:51:16.115Z,82.73
2023-02-13T01:54:05.914Z,82.38
2023-02-13T01:56:38.802Z,80.96
2023-02-13T01:59:14.147Z,81.26
2023-02-13T02:01:41.677Z,81.62
2023-02-13T02:04:22.532Z,81.67
2023-02-13T02:06:54.759Z,81.34
2023-02-13T02:09:30.062Z,81.91
2023-02-13T02:12:06.828Z,81.99
2023-02-13T02:14:37.834Z,81.92
2023-02-13T02:17:08.450Z,81.60
2023-02-13T02:19:39.575Z,81.61
2023-02-13T02:22:25.748Z,81.43
2023-02-13T02:25:26.860Z,81.33
2023-02-13T02:28:21.139Z,81.46
2023-02-13T02:31:06.468Z,81.30
2023-02-13T02:33:50.019Z,81.71
2023-02-13T02:36:33.618Z,81.85
2023-02-13T02:39:06.956Z,81.75
2023-02-13T02:41:56.151Z,82.00
2023-02-13T02:44:37.428Z,82.07
2023-02-13T02:48:01.423Z,82.11
2023-02-13T02:50:41.981Z,82.41
2023-02-13T02:53:24.005Z,82.09
2023-02-13T02:55:55.347Z,82.18
2023-02-13T02:58:57.898Z,82.01
2023-02-13T03:01:51.644Z,81.79
2023-02-13T03:04:52.198Z,81.94
2023-02-13T03:07:20.067Z,81.89
2023-02-13T03:10:09.988Z,81.68
2023-02-13T03:13:02.719Z,81.51
2023-02-13T03:15:30.280Z,81.04
2023-02-13T03:18:18.344Z,81.04
2023-02-13T03:21:21.987Z,81.31
2023-02-13T03:24:04.196Z,81.07
2023-02-13T03:26:51.764Z,81.27
2023-02-13T03:30:11.493Z,80.96
2023-02-13T03:32:45.514Z,80.13
2023-02-13T03:35:42.803Z,80.02
2023-02-13T03:38:47.293Z,83.56
2023-02-13T03:41:30.523Z,81.50
2023-02-13T03:44:04.069Z,81.63
2023-02-13T03:46:35.951Z,82.87
2023-02-13T03:49:27.371Z,83.52
2023-02-13T03:52:07.843Z,83.68
2023-02-13T03:55:27.570Z,81.77
2023-02-13T03:58:19.104Z,81.18
2023-02-13T04:00:52.057Z,81.52
2023-02-13T04:03:31.622Z,81.28
2023-02-13T04:06:09.384Z,81.17
2023-02-13T04:08:37.323Z,81.15
2023-02-13T04:11:31.554Z,81.48
2023-02-13T04:14:10.915Z,82.14
2023-02-13T04:16:46.860Z,81.82
2023-02-13T04:19:15.268Z,81.69
2023-02-13T04:21:44.867Z,81.67
2023-02-13T04:24:12.300Z,81.45
2023-02-13T04:26:46.666Z,81.82
2023-02-13T04:29:13.900Z,81.38
2023-02-13T04:31:43.692Z,81.12
2023-02-13T04:34:11.017Z,80.66
2023-02-13T04:36:38.144Z,80.51
2023-02-13T04:39:05.341Z,80.48
2023-02-13T04:41:32.656Z,80.49
2023-02-13T04:44:02.330Z,80.01
2023-02-13T04:46:29.543Z,80.56
2023-02-13T04:48:57.790Z,80.70
2023-02-13T04:51:24.959Z,80.30
2023-02-13T04:53:52.134Z,79.92
2023-02-13T04:56:20.029Z,80.04
2023-02-13T04:58:47.332Z,80.46
2023-02-13T05:01:17.997Z,79.85
2023-02-13T05:03:45.301Z,79.38
2023-02-13T05:06:14.987Z,79.26
2023-02-13T05:08:42.233Z,79.87
2023-02-13T05:11:09.435Z,79.75
2023-02-13T05:13:36.625Z,79.70
2023-02-13T05:16:03.924Z,78.73
2023-02-13T05:18:33.430Z,81.80
2023-02-13T05:21:21.712Z,83.78
2023-02-13T05:23:51.431Z,83.08
2023-02-13T05:26:18.680Z,81.93
2023-02-13T05:29:04.417Z,82.98
2023-02-13T05:31:31.770Z,81.14
2023-02-13T05:33:59.225Z,81.18
2023-02-13T05:36:26.408Z,82.07
2023-02-13T05:38:58.332Z,82.15
2023-02-13T05:41:25.540Z,81.30
2023-02-13T05:43:52.683Z,82.65
2023-02-13T05:46:19.904Z,82.19
2023-02-13T05:48:47.117Z,81.93
2023-02-13T05:51:16.440Z,80.94
2023-02-13T05:53:43.610Z,80.41
2023-02-13T05:56:10.939Z,80.77
2023-02-13T05:58:38.118Z,80.85
2023-02-13T06:01:07.707Z,81.10
2023-02-13T06:03:34.946Z,81.15
2023-02-13T06:06:02.846Z,80.80
2023-02-13T06:08:30.031Z,80.68
2023-02-13T06:10:57.535Z,80.83
2023-02-13T06:13:24.902Z,80.73
2023-02-13T06:15:52.362Z,80.44
2023-02-13T06:18:21.921Z,80.73
2023-02-13T06:20:51.747Z,81.03
2023-02-13T06:23:18.989Z,81.41
2023-02-13T06:25:46.175Z,82.31
2023-02-13T06:28:15.700Z,82.36
2023-02-13T06:30:45.387Z,82.67
2023-02-13T06:33:12.635Z,83.07
2023-02-13T06:36:05.696Z,83.03
2023-02-13T06:38:35.480Z,82.91
2023-02-13T06:41:05.257Z,82.84
2023-02-13T06:43:34.792Z,82.98
2023-02-13T06:46:06.236Z,82.66
2023-02-13T06:48:34.065Z,82.40
2023-02-13T06:51:03.972Z,81.92
2023-02-13T06:53:31.305Z,82.00
2023-02-13T06:55:58.541Z,82.29
2023-02-13T06:58:27.481Z,82.40
2023-02-13T07:00:54.681Z,82.18
2023-02-13T07:03:22.001Z,82.25
2023-02-13T07:05:52.064Z,81.91
2023-02-13T07:08:19.626Z,81.88
2023-02-13T07:10:46.828Z,81.72
2023-02-13T07:13:14.071Z,81.78
2023-02-13T07:15:44.719Z,81.76
2023-02-13T07:18:13.874Z,81.66
2023-02-13T07:20:41.053Z,81.59
2023-02-13T07:23:08.391Z,81.19
2023-02-13T07:25:37.794Z,81.29
2023-02-13T07:28:06.241Z,81.11
2023-02-13T07:30:34.596Z,81.10
2023-02-13T07:33:05.275Z,81.14
2023-02-13T07:35:37.179Z,80.84
2023-02-13T07:38:04.784Z,81.56
2023-02-13T07:40:34.932Z,81.54
2023-02-13T07:43:02.368Z,80.99
2023-02-13T07:45:29.913Z,80.72
2023-02-13T07:48:04.315Z,80.60
2023-02-13T07:50:33.741Z,80.36
2023-02-13T07:53:02.318Z,80.25
2023-02-13T07:55:32.871Z,80.81
2023-02-13T07:58:00.812Z,81.25
2023-02-13T08:00:28.222Z,81.36
2023-02-13T08:02:55.459Z,80.94
2023-02-13T08:05:22.667Z,80.49
2023-02-13T08:07:49.872Z,80.47
2023-02-13T08:10:38.318Z,79.94
2023-02-13T08:13:09.780Z,79.93
2023-02-13T08:15:36.994Z,79.79
2023-02-13T08:18:04.543Z,79.74
2023-02-13T08:20:32.088Z,80.71
2023-02-13T08:23:09.747Z,80.35
2023-02-13T08:25:40.659Z,79.85
2023-02-13T08:28:08.022Z,80.09
2023-02-13T08:30:35.241Z,80.05
2023-02-13T08:33:02.542Z,80.14
2023-02-13T08:35:31.674Z,80.01
2023-02-13T08:38:05.940Z,78.74
2023-02-13T08:40:34.632Z,78.28
2023-02-13T08:43:03.451Z,78.38
2023-02-13T08:45:33.565Z,78.44
2023-02-13T08:48:01.203Z,78.04
2023-02-13T08:50:28.714Z,77.71
2023-02-13T08:52:55.919Z,77.31
2023-02-13T08:55:23.107Z,76.47
2023-02-13T08:57:50.235Z,76.16
2023-02-13T09:00:20.167Z,76.35
2023-02-13T09:02:47.332Z,76.30
2023-02-13T09:05:14.565Z,76.13
2023-02-13T09:07:41.850Z,76.12
2023-02-13T09:10:09.401Z,75.76
2023-02-13T09:12:37.876Z,75.73
2023-02-13T09:15:06.054Z,74.80
2023-02-13T09:17:35.543Z,75.01
2023-02-13T09:20:06.295Z,74.85
2023-02-13T09:22:33.458Z,74.03
2023-02-13T09:25:04.144Z,73.95
2023-02-13T09:27:31.570Z,74.41
2023-02-13T09:29:59.061Z,74.08
2023-02-13T09:32:26.468Z,74.51
2023-02-13T09:34:53.718Z,73.39
2023-02-13T09:37:22.987Z,73.15
2023-02-13T09:39:50.226Z,73.21
2023-02-13T09:42:27.992Z,73.71
2023-02-13T09:45:01.332Z,73.12
2023-02-13T09:47:42.077Z,73.64
2023-02-13T09:50:25.499Z,74.15
2023-02-13T09:52:55.283Z,72.89
2023-02-13T09:55:27.962Z,72.70
2023-02-13T09:58:37.251Z,72.68
2023-02-13T10:01:14.823Z,72.32
2023-02-13T10:03:52.362Z,72.12
2023-02-13T10:06:30.894Z,71.86
2023-02-13T10:09:22.633Z,70.95
2023-02-13T10:12:19.171Z,70.82
2023-02-13T10:15:04.436Z,70.43
2023-02-13T10:17:38.677Z,70.11
2023-02-13T10:20:18.311Z,69.97
2023-02-13T10:23:24.824Z,69.13
2023-02-13T10:26:00.935Z,69.47
2023-02-13T10:28:34.868Z,68.62
2023-02-13T10:31:07.562Z,68.13
2023-02-13T10:34:01.273Z,67.69
2023-02-13T12:05:45.435Z,63.96
2023-02-13T12:08:12.926Z,63.83
2023-02-13T12:10:40.193Z,64.32
2023-02-13T12:13:22.774Z,64.70
2023-02-13T12:16:00.314Z,64.52
2023-02-13T12:18:41.547Z,64.52
2023-02-13T12:21:33.124Z,64.71
2023-02-13T12:24:27.082Z,64.04
2023-02-13T12:27:28.209Z,64.50
2023-02-13T12:30:52.219Z,63.49
2023-02-13T12:33:22.290Z,63.45
2023-02-13T12:35:57.112Z,63.31
2023-02-13T12:38:33.326Z,63.15
2023-02-13T12:41:18.032Z,64.13
2023-02-13T12:44:07.353Z,63.78
2023-02-13T12:46:49.458Z,62.88
2023-02-13T12:49:28.504Z,62.50
2023-02-13T12:52:21.864Z,62.24
2023-02-13T12:55:20.059Z,62.73
2023-02-13T12:58:06.142Z,63.17
2023-02-13T13:00:59.470Z,62.02
2023-02-13T13:03:58.279Z,62.46
2023-02-13T13:06:45.682Z,62.68
2023-02-13T13:09:34.504Z,62.37
2023-02-13T13:12:28.751Z,62.38
2023-02-13T13:15:09.689Z,61.70
2023-02-13T13:17:55.104Z,61.72
2023-02-13T13:20:28.024Z,61.80
2023-02-13T13:23:14.543Z,62.40
2023-02-13T13:26:32.119Z,62.44
2023-02-13T13:29:01.923Z,62.85
2023-02-13T13:31:29.472Z,62.16
2023-02-13T13:34:02.525Z,62.08
2023-02-13T13:37:06.915Z,62.45
2023-02-13T13:39:42.955Z,62.34
2023-02-13T13:42:35.619Z,62.08
2023-02-13T13:45:22.536Z,62.07
2023-02-13T13:48:01.651Z,62.87
2023-02-13T13:50:32.783Z,62.82
2023-02-13T13:53:23.290Z,62.67
2023-02-13T13:55:50.478Z,62.40
2023-02-13T13:58:36.054Z,61.89
2023-02-13T14:01:18.597Z,61.89
2023-02-13T14:03:56.697Z,62.13
2023-02-13T14:06:48.204Z,62.33
2023-02-13T14:09:39.012Z,62.83
2023-02-13T14:12:24.294Z,62.97
2023-02-13T14:14:53.441Z,62.96
2023-02-13T14:17:43.958Z,62.81
2023-02-13T14:20:33.261Z,63.23
2023-02-13T14:23:14.155Z,63.27
2023-02-13T14:25:42.040Z,63.63
2023-02-13T14:28:23.209Z,63.98
2023-02-13T14:30:54.561Z,64.31
2023-02-13T14:33:28.575Z,64.06
2023-02-13T14:36:06.561Z,64.28
2023-02-13T14:38:35.544Z,64.37
2023-02-13T14:41:02.759Z,65.11
2023-02-13T14:43:51.074Z,64.81
2023-02-13T14:46:27.299Z,64.74
2023-02-13T14:49:23.622Z,64.64
2023-02-13T14:52:00.305Z,65.09
2023-02-13T14:54:32.936Z,64.89
2023-02-13T14:57:25.955Z,64.77
2023-02-13T15:00:01.182Z,65.24
2023-02-13T15:02:33.689Z,64.80
2023-02-13T15:05:07.448Z,64.91
2023-02-13T15:07:45.255Z,65.32
2023-02-13T15:10:49.195Z,65.54
2023-02-13T15:13:21.958Z,65.33
2023-02-13T15:15:58.922Z,65.72
2023-02-13T15:18:29.214Z,65.52
2023-02-13T15:21:00.441Z,65.27
2023-02-13T15:23:33.731Z,65.60
2023-02-13T15:26:06.416Z,65.79
2023-02-13T15:28:35.656Z,65.95
2023-02-13T15:31:20.968Z,65.69
2023-02-13T15:33:50.420Z,66.15
2023-02-13T15:36:25.474Z,66.06
2023-02-13T15:39:00.432Z,65.88
2023-02-13T15:41:33.540Z,65.81
2023-02-13T15:44:01.142Z,66.24
2023-02-13T15:46:31.981Z,66.35
2023-02-13T15:49:04.654Z,66.31
2023-02-13T15:51:32.319Z,66.68
2023-02-13T15:54:01.906Z,66.65
2023-02-13T15:56:30.881Z,66.90
2023-02-13T15:58:59.862Z,66.72
2023-02-13T16:01:28.769Z,66.69
2023-02-13T16:04:16.878Z,67.01
2023-02-13T16:06:46.667Z,67.33
2023-02-13T16:09:33.697Z,67.06
2023-02-13T16:12:07.145Z,67.48
2023-02-13T16:14:37.846Z,67.21
2023-02-13T16:17:08.238Z,67.28
2023-02-13T16:19:37.106Z,67.45
2023-02-13T16:22:31.188Z,67.39
2023-02-13T16:25:24.686Z,67.81
2023-02-13T16:27:55.343Z,67.99
2023-02-13T16:30:22.582Z,67.93
2023-02-13T16:32:49.727Z,67.75
2023-02-13T16:35:28.627Z,67.61
2023-02-13T16:38:00.495Z,67.90
2023-02-13T16:40:38.386Z,67.86
2023-02-13T16:43:33.351Z,67.73
2023-02-13T16:46:15.518Z,67.91
2023-02-13T16:48:48.609Z,68.13
2023-02-13T16:51:22.844Z,68.01
2023-02-13T16:53:57.502Z,68.02
2023-02-13T16:56:24.905Z,67.68
2023-02-13T16:59:23.473Z,67.66
2023-02-13T17:02:12.688Z,68.26
2023-02-13T17:04:41.956Z,68.20
2023-02-13T17:07:14.382Z,68.30
2023-02-13T17:09:41.667Z,68.24
2023-02-13T17:12:15.129Z,68.21
2023-02-13T17:14:43.106Z,68.44
2023-02-13T17:17:19.014Z,68.71
2023-02-13T17:19:46.255Z,68.65
2023-02-13T17:22:21.264Z,68.45
2023-02-13T17:24:48.763Z,68.17
2023-02-13T17:27:15.911Z,67.76
2023-02-13T17:29:43.131Z,67.69
2023-02-13T17:32:17.068Z,67.76
2023-02-13T17:34:46.652Z,67.89
2023-02-13T17:37:26.480Z,67.96
2023-02-13T17:39:54.509Z,68.04
2023-02-13T17:42:26.734Z,67.95
2023-02-13T17:44:56.390Z,68.21
2023-02-13T17:47:24.482Z,68.26
2023-02-13T17:49:55.136Z,68.37
2023-02-13T17:52:30.915Z,68.71
2023-02-13T17:54:58.071Z,68.23
2023-02-13T17:57:25.310Z,68.28
2023-02-13T17:59:52.563Z,68.77
2023-02-13T18:02:22.487Z,68.39
2023-02-13T18:04:50.563Z,68.15
2023-02-13T18:07:20.448Z,67.78
2023-02-13T18:09:47.753Z,67.98
2023-02-13T18:12:18.273Z,67.90
2023-02-13T18:14:46.834Z,67.98
2023-02-13T18:17:14.483Z,68.22
2023-02-13T18:19:42.033Z,68.45
2023-02-13T18:22:10.534Z,68.83
2023-02-13T18:24:40.117Z,68.64
2023-02-13T18:27:08.720Z,68.97
2023-02-13T18:29:37.418Z,69.11
2023-02-13T18:32:08.128Z,69.41
2023-02-13T18:34:37.622Z,69.15
2023-02-13T18:37:06.390Z,69.25
2023-02-13T18:39:34.023Z,69.28
2023-02-13T18:42:01.576Z,69.90
2023-02-13T18:44:30.923Z,69.25
2023-02-13T18:46:58.603Z,69.46
2023-02-13T18:49:25.933Z,69.49
2023-02-13T18:51:53.445Z,69.37
2023-02-13T18:54:21.573Z,69.61
2023-02-13T18:56:49.051Z,69.88
2023-02-13T18:59:16.317Z,69.79
2023-02-13T19:01:45.054Z,69.69
2023-02-13T19:04:12.684Z,69.94
2023-02-13T19:06:40.757Z,69.92
2023-02-13T19:09:08.801Z,70.11
2023-02-13T19:11:38.479Z,70.26
2023-02-13T19:14:06.993Z,70.43
2023-02-13T19:16:35.489Z,70.65
2023-02-13T19:19:05.203Z,70.38
2023-02-13T19:21:34.658Z,70.65
2023-02-13T19:24:07.890Z,70.57
2023-02-13T19:26:35.439Z,70.45
2023-02-13T19:29:03.621Z,71.11
2023-02-13T19:31:32.452Z,70.79
2023-02-13T19:34:02.856Z,70.81
2023-02-13T19:36:30.322Z,70.99
2023-02-13T19:39:03.904Z,70.79
2023-02-13T19:41:32.852Z,70.78
2023-02-13T19:44:01.058Z,70.53
2023-02-13T19:46:32.525Z,70.76
2023-02-13T19:49:00.496Z,70.88
2023-02-13T19:51:30.319Z,70.53
2023-02-13T19:54:04.968Z,70.66
2023-02-13T19:56:34.239Z,70.66
2023-02-13T19:59:01.515Z,70.66
2023-02-13T20:01:29.823Z,70.73
2023-02-13T20:03:57.520Z,70.89
2023-02-13T20:06:31.988Z,70.84
2023-02-13T20:09:01.659Z,70.79
2023-02-13T20:11:29.427Z,70.89
2023-02-13T20:14:00.625Z,70.96
2023-02-13T20:16:32.755Z,71.15
2023-02-13T20:19:09.574Z,70.84
2023-02-13T20:21:36.980Z,71.21
2023-02-13T20:24:04.917Z,70.89
2023-02-13T20:26:32.862Z,71.32
2023-02-13T20:29:00.180Z,71.47
2023-02-13T20:31:29.780Z,71.38
2023-02-13T20:33:58.259Z,71.24
2023-02-13T20:36:30.833Z,71.39
2023-02-13T20:39:00.686Z,71.42
2023-02-13T20:41:33.447Z,71.42
2023-02-13T20:44:04.403Z,71.25
2023-02-13T20:46:33.240Z,71.57
2023-02-13T20:49:00.582Z,71.69
2023-02-13T20:51:28.312Z,71.90
2023-02-13T20:53:56.243Z,72.25
2023-02-13T20:56:25.373Z,72.28
2023-02-13T20:58:56.200Z,72.01
2023-02-13T21:01:40.510Z,72.04
2023-02-13T21:04:11.226Z,72.04
2023-02-13T21:06:39.752Z,71.97
2023-02-13T21:09:09.340Z,71.81
2023-02-13T21:11:40.882Z,72.18
2023-02-13T21:14:09.450Z,71.91
2023-02-13T21:16:39.082Z,71.83
2023-02-13T21:19:15.085Z,72.20
2023-02-13T21:21:44.215Z,72.16
2023-02-13T21:24:20.574Z,72.13
2023-02-13T21:26:50.059Z,71.76
2023-02-13T21:29:17.592Z,72.09
2023-02-13T21:31:50.872Z,71.96
2023-02-13T21:34:18.364Z,72.61
2023-02-13T21:36:46.028Z,72.30
2023-02-13T21:39:13.669Z,72.23
2023-02-13T21:41:43.766Z,72.33
2023-02-13T21:44:14.229Z,72.66
2023-02-13T21:46:43.055Z,72.63
2023-02-13T21:49:12.982Z,72.61
2023-02-13T21:51:40.715Z,72.61
2023-02-13T21:54:08.018Z,72.70
2023-02-13T21:56:36.683Z,72.78
2023-02-13T21:59:04.505Z,73.25
2023-02-13T22:01:45.710Z,73.13
2023-02-13T22:04:13.036Z,73.60
2023-02-13T22:06:40.775Z,73.72
2023-02-13T22:09:11.159Z,73.83
2023-02-13T22:11:38.857Z,73.69
2023-02-13T22:14:08.825Z,73.60
2023-02-13T22:16:38.316Z,73.60
2023-02-13T22:19:07.281Z,73.77
2023-02-13T22:21:35.719Z,74.31
2023-02-13T22:24:03.304Z,74.13
2023-02-13T22:26:32.891Z,73.70
2023-02-13T22:29:02.724Z,73.80
2023-02-13T22:31:30.163Z,73.97
2023-02-13T22:34:03.978Z,73.77
2023-02-13T22:36:40.134Z,74.03
2023-02-13T22:39:09.567Z,74.04
2023-02-13T22:41:37.528Z,74.00
2023-02-13T22:44:04.897Z,73.99
2023-02-13T22:46:33.720Z,73.89
2023-02-13T22:49:01.488Z,74.29
2023-02-13T22:51:33.855Z,74.57
2023-02-13T22:54:01.640Z,74.43
2023-02-13T22:56:29.815Z,74.66
2023-02-13T22:58:57.793Z,74.53
2023-02-13T23:01:26.679Z,74.29
2023-02-13T23:03:54.960Z,74.34
2023-02-13T23:06:23.497Z,74.45
2023-02-13T23:08:53.390Z,74.30
2023-02-13T23:11:42.090Z,74.07
2023-02-13T23:14:10.325Z,74.06
2023-02-13T23:16:58.039Z,74.31
2023-02-13T23:19:27.441Z,74.22
2023-02-13T23:21:55.224Z,74.20
2023-02-13T23:24:22.754Z,74.13
2023-02-13T23:26:49.905Z,73.84
2023-02-13T23:29:17.409Z,74.27
2023-02-13T23:31:44.689Z,74.26
2023-02-13T23:34:12.124Z,73.86
2023-02-13T23:36:40.014Z,74.09
2023-02-13T23:39:07.268Z,73.93
2023-02-13T23:41:34.427Z,73.76
2023-02-13T23:44:01.664Z,73.47
2023-02-13T23:46:28.937Z,73.75
2023-02-13T23:48:56.234Z,73.70
2023-02-13T23:51:25.583Z,73.89
2023-02-13T23:53:56.162Z,73.63
2023-02-13T23:56:24.871Z,73.62
2023-02-13T23:58:52.438Z,73.69
